Mendota, MN (55150)

2:51 AM CDT on October 26, 2014 (GMT -0500)
Graham Place/River Crossing-Highland Park | Change Station
CLOSE
Current Station
Personal Weather Station
Location: St. Paul, MN
Elevation: 807 ft
Nearby Weather Stations

Elev 807 ft 44.90 °N, 93.17 °W | Updated 13 minutes ago

Clear
Clear
37.9 °F
Feels Like 38 °F
N
0.0
Wind Variable Wind from SW

Today
High -- | Low -- °F
--% Chance of Precip.
Yesterday
High -- | Low -- °F
Precip. -- in
7:42 AM 6:09 PM
Waxing Crescent, 6% visible
Pressure 30.06 in
Visibility 10.0 miles
Clouds Clear
Windchill 38 °F
Dew Point 37 °F
Humidity 98%
Rainfall 0.00 in
Snow Depth Not available.
UV 0 out of 12
Pollen 2.10 out of 12
Ozone Good
PM2.5 Moderate
Flu Activity Sporadic
METAR KMSP 260653Z 00000KT 10SM CLR 06/M02 A3005 RMK AO2 SLP178 T00611022

More Conditions Fewer Conditions

Pressure 30.06 in
Visibility 10.0 miles
Clouds Clear
Windchill 38 °F
Dew Point 37 °F
Humidity 98%
Rainfall 0.00 in
Snow Depth Not available.
UV 0 out of 12
Pollen 2.10 out of 12
Ozone Good
PM2.5 Moderate
Flu Activity Sporadic
METAR KMSP 260653Z 00000KT 10SM CLR 06/M02 A3005 RMK AO2 SLP178 T00611022

More Conditions Fewer Conditions

10-Day Weather Forecast

Almanac

Astronomy

Oct. 26, 2014 Rise Set
Actual Time 7:42 AM CDT 6:09 PM CDT
Civil Twilight 7:12 AM CDT 6:39 PM CDT
Nautical Twilight 6:38 AM CDT 7:14 PM CDT
Astronomical Twilight 6:04 AM CDT 7:48 PM CDT
Moon 10:26 AM CDT 8:16 PM CDT
Length of Visible Light 11h 27m
Length of Day
10h 27m
Tomorrow will be 2m 53s shorter.
Waxing Crescent, 6% of the Moon is Illuminated
Today
Waxing Crescent
Oct 30
First Quarter
Nov 6
Full
Nov 14
Last Quarter
Nov 22
New

Today's Extremes

State Highs State Lows

Community

WunderPhotos

Upload Photos

1,765,115 photos uploaded!

Nearby

Air Quality

  Air Quality AQ Index Pollutant
Yesterday Good
OZONE
Yesterday Good
PM2.5
Current Moderate
PM2.5
Current Good
OZONE
Sunday Moderate
PM2.5
Monday Good
PM2.5
Tuesday Good
PM2.5
Wednesday Good
PM2.5
Thursday Good
PM2.5

Snow Depth

Station Depth Elevation
No new snow has been reported.

Earthquake Activity

City Distance Mag. Time & Date
No recent earthquake activity has been reported nearby.
Minimum magnitude displayed is 2.5.

Coastal Water Temperatures

Place Temperature
No Stations Reporting

Nearby Weather Stations